Time;durP1;ratioP1;P1;durP2;ratioP2;P2;SDS_P1;SDS_P2;PMS_P1;PMS_P2;Temp;Humidity;BMP_temperature;BMP_pressure;BME280_temperature;BME280_humidity;BME280_pressure;Samples;Min_cycle;Max_cycle;Signal;HPM_P1;HPM_P2
2023/03/12 00:04:34;;;;;;;28.20;13.90;;;;;;;-0.75;100.00;98358.76;271470;1269;23288;-82
2023/03/12 00:10:39;;;;;;;27.90;15.50;;;;;;;-0.80;100.00;98363.69;270699;1270;22608;-82
2023/03/12 00:17:05;;;;;;;32.30;17.10;;;;;;;-0.85;100.00;98373.36;269688;1263;22200;-82
2023/03/12 00:23:07;;;;;;;39.00;17.20;;;;;;;-0.93;100.00;98382.52;273137;1270;22369;-82
2023/03/12 00:29:50;;;;;;;31.70;15.80;;;;;;;-1.02;100.00;98382.16;272897;1270;23756;-82
2023/03/12 00:35:52;;;;;;;30.40;16.60;;;;;;;-1.11;100.00;98388.34;269559;1270;24008;-83
2023/03/12 00:41:54;;;;;;;32.80;16.10;;;;;;;-1.17;100.00;98392.38;270538;1263;22578;-81
2023/03/12 00:47:56;;;;;;;30.50;16.70;;;;;;;-1.23;100.00;98392.74;269462;1270;22570;-85
2023/03/12 00:53:58;;;;;;;30.60;16.10;;;;;;;-1.30;100.00;98391.52;269342;1270;22563;-83
2023/03/12 01:00:00;;;;;;;40.60;19.90;;;;;;;-1.35;100.00;98398.55;269824;1270;25466;-84
2023/03/12 01:06:03;;;;;;;33.90;17.40;;;;;;;-1.39;100.00;98402.59;270781;1260;22545;-83
2023/03/12 01:12:06;;;;;;;32.40;16.60;;;;;;;-1.44;100.00;98405.73;270451;1270;22541;-81
2023/03/12 01:18:08;;;;;;;31.90;17.80;;;;;;;-1.50;100.00;98414.61;273032;1270;22274;-81
2023/03/12 01:24:10;;;;;;;34.20;17.10;;;;;;;-1.54;100.00;98421.95;273300;1261;22451;-82
2023/03/12 01:30:12;;;;;;;32.90;16.00;;;;;;;-1.57;100.00;98421.42;273417;1270;22233;-82
2023/03/12 01:36:35;;;;;;;39.10;18.00;;;;;;;-1.59;100.00;98421.27;271667;1257;23869;-81
2023/03/12 01:42:36;;;;;;;33.60;16.60;;;;;;;-1.57;100.00;98416.73;269807;1270;23770;-82
2023/03/12 01:49:00;;;;;;;25.80;14.00;;;;;;;-1.56;100.00;98422.27;269735;1270;22547;-82
2023/03/12 01:55:28;;;;;;;31.70;16.40;;;;;;;-1.53;100.00;98424.40;271322;1269;22532;-82
2023/03/12 02:01:54;;;;;;;32.20;16.10;;;;;;;-1.59;100.00;98425.47;270391;1261;22581;-83
2023/03/12 02:07:56;;;;;;;35.80;17.20;;;;;;;-1.67;100.00;98431.59;270083;1260;24301;-82
2023/03/12 02:14:18;;;;;;;31.20;15.10;;;;;;;-1.74;100.00;98439.27;270312;1270;22756;-83
2023/03/12 02:20:46;;;;;;;31.00;15.70;;;;;;;-1.82;100.00;98449.73;269802;1259;22218;-83
2023/03/12 02:26:48;;;;;;;31.50;16.30;;;;;;;-1.91;100.00;98454.27;270179;1270;22596;-83
2023/03/12 02:32:50;;;;;;;29.50;16.20;;;;;;;-1.96;100.00;98462.81;270133;1269;22663;-82
2023/03/12 02:38:54;;;;;;;34.10;16.70;;;;;;;-1.97;100.00;98469.18;269850;1257;22544;-83
2023/03/12 02:45:17;;;;;;;28.80;15.60;;;;;;;-1.93;100.00;98474.06;271063;1266;22533;-81
2023/03/12 02:51:20;;;;;;;34.30;17.50;;;;;;;-1.89;100.00;98473.64;269028;1270;22554;-82
2023/03/12 02:57:22;;;;;;;25.80;13.80;;;;;;;-1.86;100.00;98484.39;269665;1257;22520;-82
2023/03/12 03:03:24;;;;;;;28.20;14.80;;;;;;;-1.82;100.00;98490.09;269813;1270;22655;-82
2023/03/12 03:09:26;;;;;;;32.20;16.00;;;;;;;-1.76;100.00;98493.58;268865;1267;22571;-83
2023/03/12 03:15:28;;;;;;;31.90;16.60;;;;;;;-1.68;100.00;98503.10;270740;1270;22354;-82
2023/03/12 03:21:30;;;;;;;30.20;15.10;;;;;;;-1.61;100.00;98509.73;271624;1259;22586;-82
2023/03/12 03:27:32;;;;;;;33.90;16.20;;;;;;;-1.54;100.00;98516.64;269687;1259;22436;-82
2023/03/12 03:33:54;;;;;;;38.20;17.90;;;;;;;-1.48;100.00;98523.85;269940;1254;23383;-81
2023/03/12 03:39:56;;;;;;;32.60;15.40;;;;;;;-1.45;100.00;98532.14;270008;1260;22475;-84
2023/03/12 03:46:15;;;;;;;25.90;13.70;;;;;;;-1.42;100.00;98541.64;272563;1269;23035;-82
2023/03/12 03:52:20;;;;;;;28.20;12.70;;;;;;;-1.39;100.00;98539.90;273088;1260;22300;-82
2023/03/12 03:58:22;;;;;;;20.80;11.10;;;;;;;-1.35;100.00;98547.17;270171;1269;22521;-83
2023/03/12 04:04:24;;;;;;;20.70;11.10;;;;;;;-1.29;100.00;98553.58;269377;1270;22497;-84
2023/03/12 04:10:26;;;;;;;29.40;12.70;;;;;;;-1.25;100.00;98557.72;269393;1270;25461;-83
2023/03/12 04:16:28;;;;;;;24.20;12.60;;;;;;;-1.21;100.00;98560.52;268761;1262;22577;-84
2023/03/12 04:22:30;;;;;;;21.30;11.10;;;;;;;-1.21;100.00;98561.27;270032;1270;22624;-83
2023/03/12 04:28:52;;;;;;;20.70;9.80;;;;;;;-1.27;100.00;98563.20;269234;1259;25052;-83
2023/03/12 04:35:15;;;;;;;22.80;10.40;;;;;;;-1.37;100.00;98566.74;269715;1256;22548;-84
2023/03/12 04:41:17;;;;;;;17.00;10.00;;;;;;;-1.46;100.00;98570.83;269893;1270;22507;-83
2023/03/12 04:47:32;;;;;;;18.70;10.00;;;;;;;-1.53;100.00;98567.13;269774;1270;22581;-84
2023/03/12 04:54:15;;;;;;;19.80;10.00;;;;;;;-1.62;100.00;98567.52;269413;1266;23077;-84
2023/03/12 05:00:18;;;;;;;16.70;10.10;;;;;;;-1.70;100.00;98572.16;269683;1269;22795;-84
2023/03/12 05:06:21;;;;;;;20.00;8.80;;;;;;;-1.76;100.00;98577.59;270138;1270;23654;-86
2023/03/12 05:12:23;;;;;;;20.50;11.00;;;;;;;-1.84;100.00;98581.09;269787;1269;130123;-84
2023/03/12 05:18:25;;;;;;;21.20;11.40;;;;;;;-1.91;100.00;98582.23;269963;1266;22362;-85
2023/03/12 05:24:44;;;;;;;21.40;10.60;;;;;;;-1.94;100.00;98583.69;269430;1270;22437;-84
2023/03/12 05:31:08;;;;;;;20.40;10.80;;;;;;;-1.92;100.00;98588.21;270182;1262;23113;-85
2023/03/12 05:37:10;;;;;;;23.90;12.00;;;;;;;-1.80;100.00;98592.70;273177;1272;22176;-86
2023/03/12 05:43:13;;;;;;;21.90;9.70;;;;;;;-1.62;100.00;98601.23;272814;1270;22307;-85
2023/03/12 05:49:15;;;;;;;14.80;7.20;;;;;;;-1.40;99.99;98604.89;272508;1270;23901;-84
2023/03/12 05:55:17;;;;;;;17.70;8.20;;;;;;;-1.30;99.41;98614.40;270288;1270;23138;-85
2023/03/12 06:01:29;;;;;;;13.80;8.00;;;;;;;-1.21;99.17;98627.56;270382;1266;22647;-84
2023/03/12 06:07:54;;;;;;;16.90;7.10;;;;;;;-0.87;99.61;98637.42;271281;1268;23722;-85
2023/03/12 06:13:56;;;;;;;11.50;6.60;;;;;;;-0.49;99.25;98648.02;269724;1269;22340;-84
2023/03/12 06:19:58;;;;;;;13.90;7.40;;;;;;;-0.13;98.93;98654.44;273249;1269;22411;-85
2023/03/12 06:26:00;;;;;;;11.50;6.40;;;;;;;-0.08;98.11;98657.61;273486;1266;22277;-85
2023/03/12 06:32:02;;;;;;;12.00;7.10;;;;;;;0.22;97.74;98663.95;272571;1263;22200;-84
2023/03/12 06:38:04;;;;;;;12.70;6.60;;;;;;;0.68;97.32;98667.83;273066;1268;22678;-83
2023/03/12 06:44:06;;;;;;;12.00;6.10;;;;;;;1.10;96.49;98672.37;272858;1269;23627;-83
2023/03/12 06:50:08;;;;;;;10.10;5.60;;;;;;;1.46;95.85;98669.44;273440;1257;22175;-84
2023/03/12 06:56:11;;;;;;;10.40;6.00;;;;;;;1.57;94.49;98678.21;273144;1269;23163;-83
2023/03/12 07:02:16;;;;;;;11.80;5.20;;;;;;;1.57;93.44;98686.67;273745;1269;22839;-83
2023/03/12 07:08:19;;;;;;;;;;;;;;;1.37;93.31;98683.05;273416;1269;23652;-84
2023/03/12 07:14:41;;;;;;;11.50;5.60;;;;;;;1.29;93.26;98686.44;271266;1263;23207;-82
2023/03/12 07:20:43;;;;;;;10.10;5.00;;;;;;;1.29;92.10;98694.36;270010;1269;22398;-82
2023/03/12 07:26:46;;;;;;;9.20;4.50;;;;;;;1.14;91.81;98695.26;270363;1269;26673;-82
2023/03/12 07:32:48;;;;;;;8.20;3.90;;;;;;;1.20;91.20;98692.96;272025;1269;22557;-82
2023/03/12 07:38:50;;;;;;;9.00;4.10;;;;;;;1.57;90.92;98691.67;270408;1269;22671;-83
2023/03/12 07:44:52;;;;;;;8.10;3.70;;;;;;;2.04;90.74;98691.36;269766;1269;22514;-82
2023/03/12 07:50:54;;;;;;;6.70;3.80;;;;;;;2.55;91.22;98689.20;270576;1266;22546;-84
2023/03/12 07:56:56;;;;;;;9.00;4.00;;;;;;;3.04;89.64;98688.81;272352;1269;22362;-84
2023/03/12 08:03:18;;;;;;;8.10;2.90;;;;;;;3.36;88.99;98688.42;273352;1259;22422;-84
2023/03/12 08:09:20;;;;;;;4.60;2.90;;;;;;;3.40;87.10;98693.29;271106;1269;22521;-83
2023/03/12 08:15:22;;;;;;;7.60;3.70;;;;;;;3.15;86.26;98695.98;270168;1269;23703;-83
2023/03/12 08:21:24;;;;;;;8.00;4.10;;;;;;;2.92;83.74;98698.00;269925;1269;22537;-84
2023/03/12 08:27:36;;;;;;;7.90;3.30;;;;;;;3.42;84.50;98695.13;270917;1269;22456;-83
2023/03/12 08:33:42;;;;;;;8.80;3.20;;;;;;;3.95;83.54;98695.59;270128;1269;22566;-82
2023/03/12 08:40:11;;;;;;;8.00;3.00;;;;;;;4.21;81.17;98706.17;270816;1268;22547;-82
2023/03/12 08:46:54;;;;;;;5.20;2.30;;;;;;;4.39;80.11;98708.90;272160;1268;22248;-83
2023/03/12 08:53:17;;;;;;;;;;;;;;;4.70;79.31;98714.65;272484;1266;22583;-83
2023/03/12 08:59:27;;;;;;;5.20;2.20;;;;;;;5.41;80.02;98721.91;273476;1269;22268;-83
2023/03/12 09:05:28;;;;;;;5.50;2.20;;;;;;;6.08;79.42;98715.53;271264;1269;22600;-82
2023/03/12 09:11:32;;;;;;;6.90;2.20;;;;;;;6.80;77.33;98722.36;271587;1262;23250;-84
2023/03/12 09:17:34;;;;;;;5.20;2.00;;;;;;;7.21;75.69;98725.32;272139;1260;22453;-84
2023/03/12 09:23:35;;;;;;;7.90;1.90;;;;;;;7.38;72.92;98721.31;273201;1262;23578;-84
2023/03/12 09:29:57;;;;;;;3.80;1.70;;;;;;;7.72;71.78;98720.78;270294;1264;25259;-84
2023/03/12 09:35:59;;;;;;;9.10;2.00;;;;;;;7.97;68.94;98710.31;272322;1269;22369;-85
2023/03/12 09:42:39;;;;;;;5.70;1.90;;;;;;;8.16;68.99;98707.21;273350;1269;22457;-83
2023/03/12 09:48:42;;;;;;;5.90;2.30;;;;;;;8.38;68.54;98708.20;272221;1269;22604;-84
2023/03/12 09:55:16;;;;;;;5.10;1.60;;;;;;;8.43;68.33;98705.39;272450;1269;22406;-83
2023/03/12 10:01:32;;;;;;;4.10;1.50;;;;;;;8.40;66.85;98704.41;270311;1269;23206;-84
2023/03/12 10:07:58;;;;;;;3.10;1.60;;;;;;;8.45;66.68;98704.80;269765;1269;22652;-84
2023/03/12 10:14:00;;;;;;;5.30;1.90;;;;;;;8.87;65.79;98702.89;270348;1269;22537;-85
2023/03/12 10:20:46;;;;;;;6.40;2.30;;;;;;;9.06;64.22;98704.55;270629;1269;23250;-84
2023/03/12 10:27:00;;;;;;;4.00;2.50;;;;;;;9.26;64.57;98711.57;270639;1267;22511;-85
2023/03/12 10:33:05;;;;;;;5.90;2.40;;;;;;;9.37;62.69;98703.97;271163;1269;22378;-85
2023/03/12 10:39:40;;;;;;;4.50;2.30;;;;;;;9.73;62.81;98701.77;272713;1269;23258;-84
2023/03/12 10:46:42;;;;;;;3.90;2.20;;;;;;;9.55;60.58;98706.34;273753;1269;22191;-83
2023/03/12 10:52:46;;;;;;;6.50;2.60;;;;;;;8.95;60.68;98709.78;269898;1259;23951;-83
2023/03/12 10:58:50;;;;;;;4.90;2.50;;;;;;;8.81;60.47;98702.98;269647;1272;22566;-84
2023/03/12 11:04:52;;;;;;;7.90;3.20;;;;;;;8.77;58.93;98704.71;269389;1271;25455;-83
2023/03/12 11:10:57;;;;;;;6.50;2.50;;;;;;;8.52;58.48;98707.77;269983;1270;22398;-85
2023/03/12 11:17:20;;;;;;;5.60;3.00;;;;;;;8.09;57.67;98713.64;272448;1263;22907;-84
2023/03/12 11:23:28;;;;;;;4.60;2.60;;;;;;;7.22;58.38;98710.98;273033;1261;23387;-84
2023/03/12 11:29:34;;;;;;;7.90;3.20;;;;;;;7.27;59.00;98710.13;273012;1270;23002;-84
2023/03/12 11:36:08;;;;;;;7.10;3.10;;;;;;;7.91;59.14;98709.11;271794;1269;22212;-83
2023/03/12 11:42:59;;;;;;;6.50;3.20;;;;;;;8.03;57.83;98711.36;273051;1259;22206;-82
2023/03/12 11:49:47;;;;;;;5.80;3.30;;;;;;;7.77;57.25;98714.80;273145;1269;22264;-83
2023/03/12 11:56:02;;;;;;;6.60;3.50;;;;;;;7.33;56.95;98719.03;271886;1270;23195;-84
2023/03/12 12:02:33;;;;;;;5.40;3.40;;;;;;;7.03;56.89;98728.93;269722;1269;22557;-84
2023/03/12 12:09:27;;;;;;;8.60;4.70;;;;;;;7.04;57.23;98733.63;270065;1257;25483;-85
2023/03/12 12:15:50;;;;;;;6.00;3.70;;;;;;;7.50;57.60;98732.20;269990;1271;22557;-84
2023/03/12 12:22:05;;;;;;;5.90;3.70;;;;;;;7.79;56.87;98727.92;271571;1272;23338;-83
2023/03/12 12:29:05;;;;;;;9.30;3.70;;;;;;;7.48;56.54;98727.65;270915;1269;23281;-83
2023/03/12 12:35:28;;;;;;;7.70;3.90;;;;;;;7.31;56.03;98723.20;273515;1269;22299;-83
2023/03/12 12:41:53;;;;;;;6.90;3.90;;;;;;;6.97;55.94;98731.37;270487;1270;22531;-83
2023/03/12 12:48:00;;;;;;;7.70;4.20;;;;;;;6.60;55.75;98730.71;270278;1268;23917;-84
2023/03/12 12:54:27;;;;;;;9.70;4.00;;;;;;;6.50;56.41;98736.26;270637;1269;22522;-82
2023/03/12 13:00:35;;;;;;;7.20;4.30;;;;;;;6.57;56.52;98737.34;270420;1270;22536;-83
2023/03/12 13:06:52;;;;;;;7.30;3.70;;;;;;;6.75;56.19;98733.85;272619;1269;25361;-83
2023/03/12 13:12:55;;;;;;;5.80;3.40;;;;;;;6.82;56.12;98736.13;270437;1270;23785;-84
2023/03/12 13:19:23;;;;;;;5.90;3.80;;;;;;;6.70;55.42;98737.23;269773;1269;22654;-83
2023/03/12 13:25:44;;;;;;;7.90;3.60;;;;;;;6.65;55.32;98740.16;269650;1269;22617;-83
2023/03/12 13:32:29;;;;;;;6.30;3.90;;;;;;;6.90;54.97;98728.27;269818;1271;24047;-83
2023/03/12 13:38:58;;;;;;;11.80;4.90;;;;;;;6.79;54.54;98725.16;270223;1269;22526;-82
2023/03/12 13:45:23;;;;;;;8.10;4.00;;;;;;;6.73;54.87;98727.05;269785;1270;22513;-84
2023/03/12 13:51:47;;;;;;;7.70;3.60;;;;;;;6.76;54.50;98724.79;270538;1257;22558;-83
2023/03/12 13:58:12;;;;;;;11.10;3.00;;;;;;;6.61;54.53;98723.91;269987;1269;22520;-84
2023/03/12 14:04:17;;;;;;;5.00;2.50;;;;;;;6.59;54.20;98718.73;270416;1256;22704;-83
2023/03/12 14:10:49;;;;;;;7.20;3.00;;;;;;;6.44;54.07;98716.91;273290;1269;25029;-84
2023/03/12 14:17:00;;;;;;;7.40;3.50;;;;;;;6.28;54.00;98714.23;270382;1269;22712;-83
2023/03/12 14:23:05;;;;;;;5.10;2.90;;;;;;;6.35;54.25;98716.17;270309;1269;22574;-83
2023/03/12 14:29:46;;;;;;;7.30;3.00;;;;;;;6.35;54.12;98723.40;270725;1269;23599;-83
2023/03/12 14:36:17;;;;;;;6.90;3.20;;;;;;;6.44;53.82;98724.45;270531;1269;25303;-82
2023/03/12 14:42:40;;;;;;;6.60;3.10;;;;;;;6.45;53.74;98727.73;270877;1264;26674;-83
2023/03/12 14:49:25;;;;;;;4.90;2.50;;;;;;;6.41;53.50;98730.92;269797;1274;22806;-84
2023/03/12 14:55:30;;;;;;;5.40;2.50;;;;;;;6.30;53.69;98735.24;272306;1274;22396;-84
2023/03/12 15:01:38;;;;;;;2.90;2.20;;;;;;;6.23;53.70;98741.45;272091;1272;22623;-84
2023/03/12 15:07:39;;;;;;;6.70;2.80;;;;;;;6.13;53.69;98744.32;271646;1274;23697;-84
2023/03/12 15:14:14;;;;;;;9.30;4.20;;;;;;;5.98;54.18;98741.16;272355;1274;22942;-83
2023/03/12 15:20:24;;;;;;;6.60;3.10;;;;;;;5.90;54.30;98735.66;272279;1263;22580;-83
2023/03/12 15:26:30;;;;;;;6.00;3.00;;;;;;;5.77;54.36;98747.64;273676;1264;22323;-83
2023/03/12 15:32:32;;;;;;;6.80;2.50;;;;;;;5.70;54.91;98753.74;272169;1265;23602;-84
2023/03/12 15:39:12;;;;;;;5.40;3.10;;;;;;;5.64;54.72;98750.09;271281;1269;22564;-83
2023/03/12 15:45:25;;;;;;;5.60;2.30;;;;;;;5.57;54.60;98745.93;270232;1265;22530;-84
2023/03/12 15:51:33;;;;;;;8.70;2.60;;;;;;;5.49;54.41;98746.73;270212;1264;23446;-84
2023/03/12 15:58:25;;;;;;;6.90;2.70;;;;;;;5.38;54.34;98752.48;270976;1269;22470;-84
2023/03/12 16:04:27;;;;;;;9.50;3.00;;;;;;;5.23;54.73;98751.67;272861;1269;22857;-84
2023/03/12 16:10:45;;;;;;;9.50;3.60;;;;;;;5.14;54.68;98750.19;273555;1269;23603;-84
2023/03/12 16:16:46;;;;;;;;;;;;;;;5.04;54.78;98756.55;271197;1260;22550;-84
2023/03/12 16:22:48;;;;;;;9.30;3.50;;;;;;;4.93;55.29;98752.29;270369;1260;24228;-84
2023/03/12 16:28:58;;;;;;;9.90;3.70;;;;;;;4.83;55.68;98760.80;270001;1269;24314;-84
2023/03/12 16:35:10;;;;;;;8.50;4.10;;;;;;;4.64;56.02;98756.59;270403;1262;23429;-84
2023/03/12 16:41:14;;;;;;;9.60;4.20;;;;;;;4.40;55.83;98769.26;270603;1269;26649;-84
2023/03/12 16:47:16;;;;;;;9.20;4.30;;;;;;;4.24;55.39;98771.84;270220;1269;22503;-84
2023/03/12 16:53:18;;;;;;;9.80;4.70;;;;;;;4.13;55.63;98761.35;271552;1269;22570;-85
2023/03/12 16:59:40;;;;;;;14.20;4.50;;;;;;;4.05;56.24;98762.54;270525;1263;22567;-84
2023/03/12 17:05:41;;;;;;;12.70;4.60;;;;;;;3.97;56.46;98767.30;270085;1269;22548;-83
2023/03/12 17:12:20;;;;;;;13.90;5.00;;;;;;;3.84;57.42;98777.54;269594;1267;468188;-83
2023/03/12 17:18:26;;;;;;;15.40;4.90;;;;;;;3.74;57.34;98791.13;272115;1269;22195;-84
2023/03/12 17:24:28;;;;;;;14.50;6.60;;;;;;;3.65;56.60;98798.16;273480;1269;22472;-83
2023/03/12 17:30:30;;;;;;;22.10;10.60;;;;;;;3.60;56.33;98799.16;271636;1264;25250;-83
2023/03/12 17:36:35;;;;;;;23.10;11.10;;;;;;;3.54;56.33;98800.02;272339;1266;22390;-83
2023/03/12 17:42:43;;;;;;;20.10;9.50;;;;;;;3.47;57.01;98786.30;273369;1269;22389;-83
2023/03/12 17:48:46;;;;;;;22.90;10.70;;;;;;;3.46;57.80;98772.27;273141;1269;23551;-83
2023/03/12 17:54:47;;;;;;;21.00;10.60;;;;;;;3.42;58.38;98766.05;264788;1269;10002079;-83
2023/03/12 18:00:49;;;;;;;23.50;10.90;;;;;;;3.40;59.68;98772.21;272997;1269;22416;-84
2023/03/12 18:06:51;;;;;;;20.10;9.70;;;;;;;3.35;59.61;98767.63;272973;1269;22525;-83
2023/03/12 18:12:52;;;;;;;19.60;9.00;;;;;;;3.33;60.00;98764.77;272276;1269;22401;-83
2023/03/12 18:19:35;;;;;;;17.50;8.60;;;;;;;3.21;60.36;98766.67;273488;1270;23469;-82
2023/03/12 18:26:17;;;;;;;13.80;6.90;;;;;;;3.07;61.08;98769.32;273209;1269;22378;-83
2023/03/12 18:32:35;;;;;;;15.10;7.40;;;;;;;3.02;60.53;98763.34;272365;1269;23889;-83
2023/03/12 18:38:45;;;;;;;18.40;8.10;;;;;;;2.97;60.81;98764.11;273407;1270;22239;-83
2023/03/12 18:44:52;;;;;;;21.30;8.90;;;;;;;2.87;61.13;98760.25;273473;1270;22226;-83
2023/03/12 18:51:14;;;;;;;23.40;9.50;;;;;;;2.73;61.14;98746.05;273265;1269;22384;-83
2023/03/12 18:57:38;;;;;;;23.00;9.90;;;;;;;2.63;60.96;98757.34;271733;1270;22279;-82
2023/03/12 19:04:00;;;;;;;17.40;8.10;;;;;;;2.59;60.74;98762.27;270246;1270;22563;-83
2023/03/12 19:10:03;;;;;;;18.50;8.90;;;;;;;2.53;60.51;98765.48;273153;1270;22217;-83
2023/03/12 19:16:09;;;;;;;19.10;9.20;;;;;;;2.48;60.91;98766.78;273130;1270;22237;-84
2023/03/12 19:22:31;;;;;;;24.80;9.40;;;;;;;2.48;61.00;98766.63;272344;1270;22393;-84
2023/03/12 19:29:02;;;;;;;29.10;12.20;;;;;;;2.46;60.89;98764.02;273409;1273;22294;-83
2023/03/12 19:35:05;;;;;;;26.90;12.40;;;;;;;2.45;60.64;98760.05;270969;1257;23828;-83
2023/03/12 19:41:08;;;;;;;32.10;12.60;;;;;;;2.45;60.71;98755.52;271249;1270;22669;-83
2023/03/12 19:47:09;;;;;;;28.00;12.40;;;;;;;2.42;61.10;98760.86;271654;1270;22874;-82
2023/03/12 19:53:12;;;;;;;26.50;11.10;;;;;;;2.42;61.28;98760.12;271382;1270;22608;-83
2023/03/12 19:59:13;;;;;;;31.10;12.60;;;;;;;2.43;60.67;98757.80;270572;1269;22584;-83
2023/03/12 20:05:15;;;;;;;32.90;12.80;;;;;;;2.45;60.63;98757.56;270263;1269;22728;-83
2023/03/12 20:11:17;;;;;;;23.70;11.10;;;;;;;2.45;60.55;98756.92;270773;1269;22528;-83
2023/03/12 20:17:29;;;;;;;29.20;14.70;;;;;;;2.47;60.61;98754.69;271044;1269;22598;-83
2023/03/12 20:24:14;;;;;;;24.90;11.40;;;;;;;2.50;60.66;98752.41;270749;1269;23104;-82
2023/03/12 20:30:37;;;;;;;22.30;10.90;;;;;;;2.54;60.59;98744.78;271250;1269;22534;-82
2023/03/12 20:36:39;;;;;;;20.60;8.40;;;;;;;2.60;60.38;98735.12;271160;1269;22948;-83
2023/03/12 20:43:21;;;;;;;14.90;7.00;;;;;;;2.66;59.98;98728.95;270183;1257;22956;-83
2023/03/12 20:49:43;;;;;;;14.50;6.80;;;;;;;2.72;59.67;98724.15;270553;1269;22533;-83
2023/03/12 20:55:44;;;;;;;18.30;6.90;;;;;;;2.76;59.46;98710.95;271866;1269;22542;-82
2023/03/12 21:01:46;;;;;;;13.70;6.30;;;;;;;2.79;59.08;98698.02;271835;1269;22415;-82
2023/03/12 21:07:48;;;;;;;17.00;6.10;;;;;;;2.83;58.81;98687.02;272564;1254;22970;-83
2023/03/12 21:13:52;;;;;;;13.20;6.70;;;;;;;2.86;58.81;98678.11;270896;1262;22588;-82
2023/03/12 21:20:17;;;;;;;15.70;7.70;;;;;;;2.90;58.55;98662.58;272507;1270;22376;-83
2023/03/12 21:26:19;;;;;;;18.60;8.50;;;;;;;2.92;58.53;98658.92;272790;1270;22570;-83
2023/03/12 21:32:21;;;;;;;18.90;8.60;;;;;;;2.96;58.38;98662.08;270609;1270;24227;-82
2023/03/12 21:38:22;;;;;;;42.30;22.60;;;;;;;3.00;58.20;98659.46;270409;1262;24373;-83
2023/03/12 21:44:24;;;;;;;21.80;9.00;;;;;;;3.03;58.25;98655.77;269454;1260;22555;-82
2023/03/12 21:50:26;;;;;;;20.00;10.50;;;;;;;3.03;58.20;98642.73;268985;1269;22538;-83
2023/03/12 21:56:35;;;;;;;17.70;7.50;;;;;;;3.04;58.10;98631.16;270075;1263;22595;-84
2023/03/12 22:02:47;;;;;;;18.50;9.00;;;;;;;3.05;57.96;98631.12;270302;1269;22549;-82
2023/03/12 22:09:09;;;;;;;17.30;7.80;;;;;;;3.07;58.01;98636.52;269499;1269;23417;-83
2023/03/12 22:15:11;;;;;;;17.90;8.00;;;;;;;3.08;58.02;98630.62;269381;1270;23295;-83
2023/03/12 22:21:56;;;;;;;14.80;7.50;;;;;;;3.10;57.95;98632.92;269270;1264;22494;-84
2023/03/12 22:27:57;;;;;;;15.70;7.20;;;;;;;3.11;58.25;98627.46;269867;1270;23621;-84
2023/03/12 22:33:59;;;;;;;14.90;5.70;;;;;;;3.10;58.56;98621.16;270502;1260;22213;-84
2023/03/12 22:40:21;;;;;;;14.00;6.30;;;;;;;3.13;58.49;98601.77;271935;1270;22431;-84
2023/03/12 22:46:24;;;;;;;17.00;6.90;;;;;;;3.18;58.80;98597.23;273333;1270;22382;-84
2023/03/12 22:52:25;;;;;;;19.10;8.10;;;;;;;3.17;59.51;98601.40;271147;1270;22568;-83
2023/03/12 22:58:28;;;;;;;16.70;6.70;;;;;;;3.17;60.35;98597.59;272973;1270;22375;-84
2023/03/12 23:04:51;;;;;;;18.80;8.10;;;;;;;3.23;60.23;98592.39;273365;1270;22291;-84
2023/03/12 23:10:58;;;;;;;16.20;7.50;;;;;;;3.32;60.82;98595.45;271933;1264;22194;-84
2023/03/12 23:17:20;;;;;;;;;;;;;;;3.36;61.42;98603.92;273650;1271;22443;-84
2023/03/12 23:23:42;;;;;;;13.50;6.20;;;;;;;3.41;61.76;98590.33;273339;1270;22194;-84
2023/03/12 23:29:44;;;;;;;17.60;7.10;;;;;;;3.48;61.85;98582.99;273350;1259;22285;-84
2023/03/12 23:36:35;;;;;;;13.40;5.60;;;;;;;3.49;63.25;98602.20;273705;1269;22252;-83
2023/03/12 23:42:57;;;;;;;10.10;4.40;;;;;;;3.48;64.34;98612.15;273334;1269;23075;-85
2023/03/12 23:48:59;;;;;;;10.00;5.50;;;;;;;3.51;63.99;98597.80;273357;1270;22210;-84
2023/03/12 23:55:01;;;;;;;10.30;4.50;;;;;;;3.58;64.28;98592.52;273397;1259;22311;-85
